sensor_id;sensor_type;location;lat;lon;timestamp;P1;durP1;ratioP1;P2;durP2;ratioP2
29730;SDS011;16639;51.488;0.152;2023-04-03T00:00:59;17.25;;;2.78;;
29730;SDS011;16639;51.488;0.152;2023-04-03T00:03:26;12.82;;;3.72;;
29730;SDS011;16639;51.488;0.152;2023-04-03T00:05:54;13.65;;;2.88;;
29730;SDS011;16639;51.488;0.152;2023-04-03T00:08:22;18.85;;;4.18;;
29730;SDS011;16639;51.488;0.152;2023-04-03T00:10:49;14.13;;;3.05;;
29730;SDS011;16639;51.488;0.152;2023-04-03T00:13:17;12.30;;;3.00;;
29730;SDS011;16639;51.488;0.152;2023-04-03T00:15:44;12.10;;;3.10;;
29730;SDS011;16639;51.488;0.152;2023-04-03T00:18:12;13.57;;;3.17;;
29730;SDS011;16639;51.488;0.152;2023-04-03T00:20:39;10.27;;;3.15;;
29730;SDS011;16639;51.488;0.152;2023-04-03T00:23:07;12.25;;;3.80;;
29730;SDS011;16639;51.488;0.152;2023-04-03T00:25:34;16.98;;;3.22;;
29730;SDS011;16639;51.488;0.152;2023-04-03T00:28:02;7.90;;;3.00;;
29730;SDS011;16639;51.488;0.152;2023-04-03T00:30:30;18.42;;;3.33;;
29730;SDS011;16639;51.488;0.152;2023-04-03T00:32:58;9.32;;;3.47;;
29730;SDS011;16639;51.488;0.152;2023-04-03T00:35:27;16.70;;;3.35;;
29730;SDS011;16639;51.488;0.152;2023-04-03T00:37:55;12.73;;;3.13;;
29730;SDS011;16639;51.488;0.152;2023-04-03T00:40:23;10.60;;;3.08;;
29730;SDS011;16639;51.488;0.152;2023-04-03T00:42:54;20.95;;;3.80;;
29730;SDS011;16639;51.488;0.152;2023-04-03T00:45:28;8.13;;;3.88;;
29730;SDS011;16639;51.488;0.152;2023-04-03T00:48:04;13.20;;;3.58;;
29730;SDS011;16639;51.488;0.152;2023-04-03T00:50:35;12.57;;;3.42;;
29730;SDS011;16639;51.488;0.152;2023-04-03T00:53:05;7.80;;;3.00;;
29730;SDS011;16639;51.488;0.152;2023-04-03T00:55:34;15.02;;;4.68;;
29730;SDS011;16639;51.488;0.152;2023-04-03T00:58:04;16.63;;;3.35;;
29730;SDS011;16639;51.488;0.152;2023-04-03T01:00:33;10.75;;;3.47;;
29730;SDS011;16639;51.488;0.152;2023-04-03T01:03:05;13.05;;;4.25;;
29730;SDS011;16639;51.488;0.152;2023-04-03T01:05:33;12.48;;;4.03;;
29730;SDS011;16639;51.488;0.152;2023-04-03T01:08:00;10.82;;;4.53;;
29730;SDS011;16639;51.488;0.152;2023-04-03T01:10:29;15.10;;;3.60;;
29730;SDS011;16639;51.488;0.152;2023-04-03T01:12:57;17.45;;;4.63;;
29730;SDS011;16639;51.488;0.152;2023-04-03T01:15:27;13.60;;;4.78;;
29730;SDS011;16639;51.488;0.152;2023-04-03T01:17:57;6.95;;;3.60;;
29730;SDS011;16639;51.488;0.152;2023-04-03T01:25:38;8.93;;;3.33;;
29730;SDS011;16639;51.488;0.152;2023-04-03T01:28:09;7.38;;;2.90;;
29730;SDS011;16639;51.488;0.152;2023-04-03T01:30:44;6.93;;;2.85;;
29730;SDS011;16639;51.488;0.152;2023-04-03T01:33:37;8.00;;;3.45;;
29730;SDS011;16639;51.488;0.152;2023-04-03T01:36:05;9.40;;;3.17;;
29730;SDS011;16639;51.488;0.152;2023-04-03T01:38:33;10.23;;;2.95;;
29730;SDS011;16639;51.488;0.152;2023-04-03T01:41:01;10.68;;;3.28;;
29730;SDS011;16639;51.488;0.152;2023-04-03T01:43:28;11.25;;;3.35;;
29730;SDS011;16639;51.488;0.152;2023-04-03T01:45:56;13.93;;;3.72;;
29730;SDS011;16639;51.488;0.152;2023-04-03T01:48:23;10.88;;;3.45;;
29730;SDS011;16639;51.488;0.152;2023-04-03T01:50:51;13.30;;;3.15;;
29730;SDS011;16639;51.488;0.152;2023-04-03T01:53:18;12.32;;;2.83;;
29730;SDS011;16639;51.488;0.152;2023-04-03T01:55:45;13.75;;;3.10;;
29730;SDS011;16639;51.488;0.152;2023-04-03T01:58:13;8.50;;;2.88;;
29730;SDS011;16639;51.488;0.152;2023-04-03T02:00:40;13.63;;;3.08;;
29730;SDS011;16639;51.488;0.152;2023-04-03T02:03:07;9.90;;;3.08;;
29730;SDS011;16639;51.488;0.152;2023-04-03T02:05:35;7.93;;;2.90;;
29730;SDS011;16639;51.488;0.152;2023-04-03T02:08:02;9.93;;;3.35;;
29730;SDS011;16639;51.488;0.152;2023-04-03T02:10:30;12.43;;;3.80;;
29730;SDS011;16639;51.488;0.152;2023-04-03T02:12:57;13.20;;;3.88;;
29730;SDS011;16639;51.488;0.152;2023-04-03T02:15:25;5.95;;;3.10;;
29730;SDS011;16639;51.488;0.152;2023-04-03T02:17:53;14.85;;;3.08;;
29730;SDS011;16639;51.488;0.152;2023-04-03T02:20:20;12.30;;;2.95;;
29730;SDS011;16639;51.488;0.152;2023-04-03T02:22:48;12.77;;;3.20;;
29730;SDS011;16639;51.488;0.152;2023-04-03T02:25:15;12.98;;;2.60;;
29730;SDS011;16639;51.488;0.152;2023-04-03T02:27:44;11.10;;;2.95;;
29730;SDS011;16639;51.488;0.152;2023-04-03T02:30:11;11.85;;;2.85;;
29730;SDS011;16639;51.488;0.152;2023-04-03T02:32:42;15.25;;;3.45;;
29730;SDS011;16639;51.488;0.152;2023-04-03T02:35:10;7.72;;;2.90;;
29730;SDS011;16639;51.488;0.152;2023-04-03T02:37:38;10.70;;;2.88;;
29730;SDS011;16639;51.488;0.152;2023-04-03T02:40:06;11.70;;;4.00;;
29730;SDS011;16639;51.488;0.152;2023-04-03T02:42:34;12.27;;;3.38;;
29730;SDS011;16639;51.488;0.152;2023-04-03T02:45:02;10.02;;;3.05;;
29730;SDS011;16639;51.488;0.152;2023-04-03T02:47:30;10.88;;;3.47;;
29730;SDS011;16639;51.488;0.152;2023-04-03T02:49:58;14.38;;;3.03;;
29730;SDS011;16639;51.488;0.152;2023-04-03T02:52:25;13.40;;;2.85;;
29730;SDS011;16639;51.488;0.152;2023-04-03T02:54:52;7.53;;;2.70;;
29730;SDS011;16639;51.488;0.152;2023-04-03T02:57:20;10.75;;;2.92;;
29730;SDS011;16639;51.488;0.152;2023-04-03T02:59:47;4.32;;;2.63;;
29730;SDS011;16639;51.488;0.152;2023-04-03T03:02:15;7.47;;;2.53;;
29730;SDS011;16639;51.488;0.152;2023-04-03T03:04:42;15.98;;;4.63;;
29730;SDS011;16639;51.488;0.152;2023-04-03T03:07:09;9.20;;;2.90;;
29730;SDS011;16639;51.488;0.152;2023-04-03T03:09:37;9.50;;;3.33;;
29730;SDS011;16639;51.488;0.152;2023-04-03T03:12:04;13.35;;;3.72;;
29730;SDS011;16639;51.488;0.152;2023-04-03T03:14:32;20.13;;;3.60;;
29730;SDS011;16639;51.488;0.152;2023-04-03T03:16:59;11.25;;;3.30;;
29730;SDS011;16639;51.488;0.152;2023-04-03T03:19:26;8.20;;;3.40;;
29730;SDS011;16639;51.488;0.152;2023-04-03T03:21:54;14.23;;;3.95;;
29730;SDS011;16639;51.488;0.152;2023-04-03T03:24:21;15.15;;;3.97;;
29730;SDS011;16639;51.488;0.152;2023-04-03T03:26:49;12.50;;;3.53;;
29730;SDS011;16639;51.488;0.152;2023-04-03T03:29:16;11.27;;;3.38;;
29730;SDS011;16639;51.488;0.152;2023-04-03T03:31:43;14.75;;;3.25;;
29730;SDS011;16639;51.488;0.152;2023-04-03T03:34:11;11.65;;;3.10;;
29730;SDS011;16639;51.488;0.152;2023-04-03T03:36:38;12.88;;;2.88;;
29730;SDS011;16639;51.488;0.152;2023-04-03T03:39:06;14.10;;;2.88;;
29730;SDS011;16639;51.488;0.152;2023-04-03T03:41:33;16.00;;;2.97;;
29730;SDS011;16639;51.488;0.152;2023-04-03T03:44:01;10.70;;;3.63;;
29730;SDS011;16639;51.488;0.152;2023-04-03T03:46:28;14.27;;;4.68;;
29730;SDS011;16639;51.488;0.152;2023-04-03T03:48:55;6.97;;;2.55;;
29730;SDS011;16639;51.488;0.152;2023-04-03T03:51:23;15.05;;;2.58;;
29730;SDS011;16639;51.488;0.152;2023-04-03T03:53:51;17.25;;;4.20;;
29730;SDS011;16639;51.488;0.152;2023-04-03T03:56:18;11.35;;;4.18;;
29730;SDS011;16639;51.488;0.152;2023-04-03T03:58:47;6.95;;;2.28;;
29730;SDS011;16639;51.488;0.152;2023-04-03T04:01:14;13.68;;;3.00;;
29730;SDS011;16639;51.488;0.152;2023-04-03T04:03:43;12.63;;;2.80;;
29730;SDS011;16639;51.488;0.152;2023-04-03T04:06:11;11.43;;;3.00;;
29730;SDS011;16639;51.488;0.152;2023-04-03T04:08:38;6.63;;;3.03;;
29730;SDS011;16639;51.488;0.152;2023-04-03T04:11:06;11.30;;;3.13;;
29730;SDS011;16639;51.488;0.152;2023-04-03T04:13:34;16.30;;;3.17;;
29730;SDS011;16639;51.488;0.152;2023-04-03T04:16:01;12.73;;;3.55;;
29730;SDS011;16639;51.488;0.152;2023-04-03T04:18:29;13.02;;;2.80;;
29730;SDS011;16639;51.488;0.152;2023-04-03T04:20:56;7.57;;;2.95;;
29730;SDS011;16639;51.488;0.152;2023-04-03T04:23:25;9.93;;;3.00;;
29730;SDS011;16639;51.488;0.152;2023-04-03T04:25:53;9.43;;;3.15;;
29730;SDS011;16639;51.488;0.152;2023-04-03T04:28:20;17.67;;;3.63;;
29730;SDS011;16639;51.488;0.152;2023-04-03T04:30:47;11.15;;;2.97;;
29730;SDS011;16639;51.488;0.152;2023-04-03T04:33:15;8.00;;;3.53;;
29730;SDS011;16639;51.488;0.152;2023-04-03T04:35:43;6.93;;;3.03;;
29730;SDS011;16639;51.488;0.152;2023-04-03T04:38:11;11.45;;;3.70;;
29730;SDS011;16639;51.488;0.152;2023-04-03T04:40:38;8.68;;;3.67;;
29730;SDS011;16639;51.488;0.152;2023-04-03T04:43:05;7.50;;;3.58;;
29730;SDS011;16639;51.488;0.152;2023-04-03T04:45:33;10.18;;;3.53;;
29730;SDS011;16639;51.488;0.152;2023-04-03T04:48:01;13.27;;;3.72;;
29730;SDS011;16639;51.488;0.152;2023-04-03T04:50:28;17.20;;;4.68;;
29730;SDS011;16639;51.488;0.152;2023-04-03T04:52:55;14.52;;;3.65;;
29730;SDS011;16639;51.488;0.152;2023-04-03T04:55:23;17.27;;;3.65;;
29730;SDS011;16639;51.488;0.152;2023-04-03T04:57:50;12.85;;;3.75;;
29730;SDS011;16639;51.488;0.152;2023-04-03T05:00:18;19.63;;;4.93;;
29730;SDS011;16639;51.488;0.152;2023-04-03T05:02:46;18.60;;;4.55;;
29730;SDS011;16639;51.488;0.152;2023-04-03T05:05:13;22.35;;;9.32;;
29730;SDS011;16639;51.488;0.152;2023-04-03T05:07:41;17.63;;;10.55;;
29730;SDS011;16639;51.488;0.152;2023-04-03T05:10:08;22.27;;;10.70;;
29730;SDS011;16639;51.488;0.152;2023-04-03T05:12:36;21.17;;;9.57;;
29730;SDS011;16639;51.488;0.152;2023-04-03T05:15:04;20.05;;;9.60;;
29730;SDS011;16639;51.488;0.152;2023-04-03T05:17:31;18.58;;;8.10;;
29730;SDS011;16639;51.488;0.152;2023-04-03T05:19:59;13.73;;;6.75;;
29730;SDS011;16639;51.488;0.152;2023-04-03T05:22:26;19.67;;;6.18;;
29730;SDS011;16639;51.488;0.152;2023-04-03T05:24:54;16.92;;;5.90;;
29730;SDS011;16639;51.488;0.152;2023-04-03T05:27:21;12.45;;;5.70;;
29730;SDS011;16639;51.488;0.152;2023-04-03T05:29:52;14.98;;;4.60;;
29730;SDS011;16639;51.488;0.152;2023-04-03T05:32:20;13.30;;;4.25;;
29730;SDS011;16639;51.488;0.152;2023-04-03T05:34:47;16.33;;;4.30;;
29730;SDS011;16639;51.488;0.152;2023-04-03T05:37:15;7.35;;;4.90;;
29730;SDS011;16639;51.488;0.152;2023-04-03T05:39:43;10.90;;;3.97;;
29730;SDS011;16639;51.488;0.152;2023-04-03T05:42:10;17.88;;;4.85;;
29730;SDS011;16639;51.488;0.152;2023-04-03T05:44:38;7.78;;;4.70;;
29730;SDS011;16639;51.488;0.152;2023-04-03T05:47:05;13.68;;;4.22;;
29730;SDS011;16639;51.488;0.152;2023-04-03T05:49:33;16.40;;;4.30;;
29730;SDS011;16639;51.488;0.152;2023-04-03T05:52:00;15.57;;;6.13;;
29730;SDS011;16639;51.488;0.152;2023-04-03T05:54:28;14.48;;;5.95;;
29730;SDS011;16639;51.488;0.152;2023-04-03T05:56:57;20.08;;;5.90;;
29730;SDS011;16639;51.488;0.152;2023-04-03T05:59:24;15.32;;;5.88;;
29730;SDS011;16639;51.488;0.152;2023-04-03T06:01:52;22.10;;;6.53;;
29730;SDS011;16639;51.488;0.152;2023-04-03T06:04:19;26.80;;;5.72;;
29730;SDS011;16639;51.488;0.152;2023-04-03T06:09:19;19.38;;;6.40;;
29730;SDS011;16639;51.488;0.152;2023-04-03T06:11:47;20.05;;;5.40;;
29730;SDS011;16639;51.488;0.152;2023-04-03T06:14:15;21.35;;;5.68;;
29730;SDS011;16639;51.488;0.152;2023-04-03T06:16:42;27.65;;;6.00;;
29730;SDS011;16639;51.488;0.152;2023-04-03T06:19:11;16.55;;;5.93;;
29730;SDS011;16639;51.488;0.152;2023-04-03T06:21:40;10.60;;;4.20;;
29730;SDS011;16639;51.488;0.152;2023-04-03T06:24:07;12.57;;;4.93;;
29730;SDS011;16639;51.488;0.152;2023-04-03T06:26:36;16.55;;;4.35;;
29730;SDS011;16639;51.488;0.152;2023-04-03T06:29:03;12.15;;;3.65;;
29730;SDS011;16639;51.488;0.152;2023-04-03T06:31:31;21.67;;;4.82;;
29730;SDS011;16639;51.488;0.152;2023-04-03T06:33:58;19.63;;;4.85;;
29730;SDS011;16639;51.488;0.152;2023-04-03T06:36:26;9.68;;;4.07;;
29730;SDS011;16639;51.488;0.152;2023-04-03T06:38:53;10.50;;;4.00;;
29730;SDS011;16639;51.488;0.152;2023-04-03T06:41:21;13.43;;;4.68;;
29730;SDS011;16639;51.488;0.152;2023-04-03T06:43:49;15.68;;;4.90;;
29730;SDS011;16639;51.488;0.152;2023-04-03T06:46:17;12.65;;;5.22;;
29730;SDS011;16639;51.488;0.152;2023-04-03T06:48:46;25.65;;;5.63;;
29730;SDS011;16639;51.488;0.152;2023-04-03T06:51:18;13.60;;;4.43;;
29730;SDS011;16639;51.488;0.152;2023-04-03T06:53:59;14.35;;;6.22;;
29730;SDS011;16639;51.488;0.152;2023-04-03T06:56:27;22.42;;;6.95;;
29730;SDS011;16639;51.488;0.152;2023-04-03T06:58:55;19.48;;;6.35;;
29730;SDS011;16639;51.488;0.152;2023-04-03T07:01:25;18.77;;;6.55;;
29730;SDS011;16639;51.488;0.152;2023-04-03T07:03:54;15.02;;;5.10;;
29730;SDS011;16639;51.488;0.152;2023-04-03T07:06:23;13.32;;;4.28;;
29730;SDS011;16639;51.488;0.152;2023-04-03T07:08:54;26.15;;;5.70;;
29730;SDS011;16639;51.488;0.152;2023-04-03T07:11:22;18.20;;;6.13;;
29730;SDS011;16639;51.488;0.152;2023-04-03T07:13:49;25.83;;;6.00;;
29730;SDS011;16639;51.488;0.152;2023-04-03T07:16:17;22.98;;;6.53;;
29730;SDS011;16639;51.488;0.152;2023-04-03T07:18:45;18.23;;;6.07;;
29730;SDS011;16639;51.488;0.152;2023-04-03T07:21:13;27.60;;;5.68;;
29730;SDS011;16639;51.488;0.152;2023-04-03T07:23:40;30.40;;;6.88;;
29730;SDS011;16639;51.488;0.152;2023-04-03T07:26:08;31.50;;;6.22;;
29730;SDS011;16639;51.488;0.152;2023-04-03T07:28:36;27.30;;;5.80;;
29730;SDS011;16639;51.488;0.152;2023-04-03T07:31:07;32.17;;;7.25;;
29730;SDS011;16639;51.488;0.152;2023-04-03T07:33:40;25.73;;;6.05;;
29730;SDS011;16639;51.488;0.152;2023-04-03T07:36:08;17.67;;;6.30;;
29730;SDS011;16639;51.488;0.152;2023-04-03T07:38:37;26.85;;;6.13;;
29730;SDS011;16639;51.488;0.152;2023-04-03T07:41:05;20.17;;;4.60;;
29730;SDS011;16639;51.488;0.152;2023-04-03T07:43:32;14.85;;;3.80;;
29730;SDS011;16639;51.488;0.152;2023-04-03T07:46:01;17.35;;;4.97;;
29730;SDS011;16639;51.488;0.152;2023-04-03T07:48:32;11.85;;;4.22;;
29730;SDS011;16639;51.488;0.152;2023-04-03T07:50:59;13.35;;;4.63;;
29730;SDS011;16639;51.488;0.152;2023-04-03T07:53:28;19.15;;;5.35;;
29730;SDS011;16639;51.488;0.152;2023-04-03T07:55:56;18.50;;;5.18;;
29730;SDS011;16639;51.488;0.152;2023-04-03T07:58:24;16.13;;;5.07;;
29730;SDS011;16639;51.488;0.152;2023-04-03T08:00:52;15.07;;;5.43;;
29730;SDS011;16639;51.488;0.152;2023-04-03T08:03:20;17.67;;;6.07;;
29730;SDS011;16639;51.488;0.152;2023-04-03T08:05:48;20.08;;;6.75;;
29730;SDS011;16639;51.488;0.152;2023-04-03T08:08:20;15.73;;;6.32;;
29730;SDS011;16639;51.488;0.152;2023-04-03T08:10:50;17.38;;;7.05;;
29730;SDS011;16639;51.488;0.152;2023-04-03T08:13:19;18.98;;;6.97;;
29730;SDS011;16639;51.488;0.152;2023-04-03T08:15:48;23.38;;;6.68;;
29730;SDS011;16639;51.488;0.152;2023-04-03T08:18:15;18.58;;;6.68;;
29730;SDS011;16639;51.488;0.152;2023-04-03T08:20:43;15.18;;;7.47;;
29730;SDS011;16639;51.488;0.152;2023-04-03T08:23:11;11.93;;;6.38;;
29730;SDS011;16639;51.488;0.152;2023-04-03T08:25:39;16.23;;;5.95;;
29730;SDS011;16639;51.488;0.152;2023-04-03T08:28:07;25.95;;;6.85;;
29730;SDS011;16639;51.488;0.152;2023-04-03T08:30:38;16.92;;;7.03;;
29730;SDS011;16639;51.488;0.152;2023-04-03T08:33:08;21.63;;;7.63;;
29730;SDS011;16639;51.488;0.152;2023-04-03T08:35:39;17.15;;;6.82;;
29730;SDS011;16639;51.488;0.152;2023-04-03T08:38:09;19.50;;;6.80;;
29730;SDS011;16639;51.488;0.152;2023-04-03T08:40:37;17.92;;;7.47;;
29730;SDS011;16639;51.488;0.152;2023-04-03T08:46:02;15.43;;;7.80;;
29730;SDS011;16639;51.488;0.152;2023-04-03T08:48:34;20.95;;;8.32;;
29730;SDS011;16639;51.488;0.152;2023-04-03T08:51:09;32.35;;;9.95;;
29730;SDS011;16639;51.488;0.152;2023-04-03T08:53:55;19.10;;;7.35;;
29730;SDS011;16639;51.488;0.152;2023-04-03T08:56:29;13.23;;;7.55;;
29730;SDS011;16639;51.488;0.152;2023-04-03T08:58:59;18.42;;;7.68;;
29730;SDS011;16639;51.488;0.152;2023-04-03T09:01:37;18.40;;;7.25;;
29730;SDS011;16639;51.488;0.152;2023-04-03T09:06:38;14.02;;;6.20;;
29730;SDS011;16639;51.488;0.152;2023-04-03T09:14:52;20.77;;;6.85;;
29730;SDS011;16639;51.488;0.152;2023-04-03T09:23:32;28.70;;;6.97;;
29730;SDS011;16639;51.488;0.152;2023-04-03T09:26:23;12.23;;;5.78;;
29730;SDS011;16639;51.488;0.152;2023-04-03T09:28:57;16.65;;;5.50;;
29730;SDS011;16639;51.488;0.152;2023-04-03T09:31:29;17.92;;;6.05;;
29730;SDS011;16639;51.488;0.152;2023-04-03T09:36:51;13.32;;;5.43;;
29730;SDS011;16639;51.488;0.152;2023-04-03T09:39:21;18.83;;;6.93;;
29730;SDS011;16639;51.488;0.152;2023-04-03T09:42:34;13.80;;;6.15;;
29730;SDS011;16639;51.488;0.152;2023-04-03T09:44:53;14.18;;;6.43;;
29730;SDS011;16639;51.488;0.152;2023-04-03T09:50:08;11.32;;;6.28;;
29730;SDS011;16639;51.488;0.152;2023-04-03T09:52:39;20.50;;;6.95;;
29730;SDS011;16639;51.488;0.152;2023-04-03T09:55:10;15.27;;;7.00;;
29730;SDS011;16639;51.488;0.152;2023-04-03T09:57:46;18.00;;;6.90;;
29730;SDS011;16639;51.488;0.152;2023-04-03T10:00:26;11.65;;;6.22;;
29730;SDS011;16639;51.488;0.152;2023-04-03T10:03:00;17.05;;;6.97;;
29730;SDS011;16639;51.488;0.152;2023-04-03T10:05:35;11.40;;;6.45;;
29730;SDS011;16639;51.488;0.152;2023-04-03T10:10:47;12.10;;;6.10;;
29730;SDS011;16639;51.488;0.152;2023-04-03T10:16:17;10.13;;;5.70;;
29730;SDS011;16639;51.488;0.152;2023-04-03T10:18:55;11.38;;;6.72;;
29730;SDS011;16639;51.488;0.152;2023-04-03T10:21:55;12.07;;;5.72;;
29730;SDS011;16639;51.488;0.152;2023-04-03T10:24:47;10.68;;;6.30;;
29730;SDS011;16639;51.488;0.152;2023-04-03T10:27:36;10.30;;;5.88;;
29730;SDS011;16639;51.488;0.152;2023-04-03T10:49:11;14.32;;;6.35;;
29730;SDS011;16639;51.488;0.152;2023-04-03T10:51:48;12.48;;;5.22;;
29730;SDS011;16639;51.488;0.152;2023-04-03T10:54:28;10.48;;;6.10;;
29730;SDS011;16639;51.488;0.152;2023-04-03T10:57:05;14.07;;;6.63;;
29730;SDS011;16639;51.488;0.152;2023-04-03T10:59:49;15.15;;;5.55;;
29730;SDS011;16639;51.488;0.152;2023-04-03T11:02:31;14.77;;;5.38;;
29730;SDS011;16639;51.488;0.152;2023-04-03T11:05:18;17.50;;;7.20;;
29730;SDS011;16639;51.488;0.152;2023-04-03T11:07:55;18.33;;;6.57;;
29730;SDS011;16639;51.488;0.152;2023-04-03T11:10:36;15.70;;;5.35;;
29730;SDS011;16639;51.488;0.152;2023-04-03T11:13:30;8.77;;;5.13;;
29730;SDS011;16639;51.488;0.152;2023-04-03T11:16:03;10.07;;;5.05;;
29730;SDS011;16639;51.488;0.152;2023-04-03T11:18:37;9.98;;;4.90;;
29730;SDS011;16639;51.488;0.152;2023-04-03T11:21:09;16.15;;;5.50;;
29730;SDS011;16639;51.488;0.152;2023-04-03T11:23:52;8.95;;;5.28;;
29730;SDS011;16639;51.488;0.152;2023-04-03T11:26:23;11.43;;;5.13;;
29730;SDS011;16639;51.488;0.152;2023-04-03T11:28:59;7.20;;;4.63;;
29730;SDS011;16639;51.488;0.152;2023-04-03T11:32:17;12.93;;;6.55;;
29730;SDS011;16639;51.488;0.152;2023-04-03T11:34:45;12.02;;;4.55;;
29730;SDS011;16639;51.488;0.152;2023-04-03T11:37:33;13.32;;;6.25;;
29730;SDS011;16639;51.488;0.152;2023-04-03T11:42:38;8.38;;;3.80;;
29730;SDS011;16639;51.488;0.152;2023-04-03T11:48:03;8.45;;;3.58;;
29730;SDS011;16639;51.488;0.152;2023-04-03T11:50:55;10.00;;;4.15;;
29730;SDS011;16639;51.488;0.152;2023-04-03T11:56:50;7.53;;;4.07;;
29730;SDS011;16639;51.488;0.152;2023-04-03T12:01:56;10.35;;;4.78;;
29730;SDS011;16639;51.488;0.152;2023-04-03T12:04:27;8.57;;;3.88;;
29730;SDS011;16639;51.488;0.152;2023-04-03T12:07:12;8.73;;;3.95;;
29730;SDS011;16639;51.488;0.152;2023-04-03T12:17:54;10.82;;;3.50;;
29730;SDS011;16639;51.488;0.152;2023-04-03T12:23:26;9.95;;;3.63;;
29730;SDS011;16639;51.488;0.152;2023-04-03T12:26:00;7.80;;;3.70;;
29730;SDS011;16639;51.488;0.152;2023-04-03T12:28:46;9.93;;;4.05;;
29730;SDS011;16639;51.488;0.152;2023-04-03T12:31:17;8.75;;;3.45;;
29730;SDS011;16639;51.488;0.152;2023-04-03T12:34:00;9.15;;;4.15;;
29730;SDS011;16639;51.488;0.152;2023-04-03T12:42:32;5.05;;;3.22;;
29730;SDS011;16639;51.488;0.152;2023-04-03T12:45:22;7.63;;;3.85;;
29730;SDS011;16639;51.488;0.152;2023-04-03T12:47:52;8.95;;;4.20;;
29730;SDS011;16639;51.488;0.152;2023-04-03T12:50:23;11.73;;;3.67;;
29730;SDS011;16639;51.488;0.152;2023-04-03T12:52:59;6.53;;;3.38;;
29730;SDS011;16639;51.488;0.152;2023-04-03T12:55:30;8.88;;;4.05;;
29730;SDS011;16639;51.488;0.152;2023-04-03T12:58:12;6.55;;;3.25;;
29730;SDS011;16639;51.488;0.152;2023-04-03T13:00:42;5.63;;;3.30;;
29730;SDS011;16639;51.488;0.152;2023-04-03T13:03:22;7.90;;;4.03;;
29730;SDS011;16639;51.488;0.152;2023-04-03T13:05:58;4.90;;;3.60;;
29730;SDS011;16639;51.488;0.152;2023-04-03T13:08:28;11.13;;;4.07;;
29730;SDS011;16639;51.488;0.152;2023-04-03T13:11:08;6.35;;;3.22;;
29730;SDS011;16639;51.488;0.152;2023-04-03T13:13:38;5.10;;;3.17;;
29730;SDS011;16639;51.488;0.152;2023-04-03T13:16:10;6.03;;;3.55;;
29730;SDS011;16639;51.488;0.152;2023-04-03T13:18:40;5.60;;;3.10;;
29730;SDS011;16639;51.488;0.152;2023-04-03T13:21:23;5.75;;;3.45;;
29730;SDS011;16639;51.488;0.152;2023-04-03T13:23:54;7.57;;;3.25;;
29730;SDS011;16639;51.488;0.152;2023-04-03T13:26:40;7.68;;;3.58;;
29730;SDS011;16639;51.488;0.152;2023-04-03T13:29:19;11.43;;;3.90;;
29730;SDS011;16639;51.488;0.152;2023-04-03T13:31:58;7.10;;;4.20;;
29730;SDS011;16639;51.488;0.152;2023-04-03T13:34:45;6.43;;;3.85;;
29730;SDS011;16639;51.488;0.152;2023-04-03T13:37:23;8.70;;;3.63;;
29730;SDS011;16639;51.488;0.152;2023-04-03T13:39:58;9.98;;;4.32;;
29730;SDS011;16639;51.488;0.152;2023-04-03T13:42:31;5.45;;;3.92;;
29730;SDS011;16639;51.488;0.152;2023-04-03T13:47:47;6.65;;;3.63;;
29730;SDS011;16639;51.488;0.152;2023-04-03T13:50:18;5.20;;;3.63;;
29730;SDS011;16639;51.488;0.152;2023-04-03T13:53:00;9.88;;;4.97;;
29730;SDS011;16639;51.488;0.152;2023-04-03T13:55:33;8.32;;;4.00;;
29730;SDS011;16639;51.488;0.152;2023-04-03T14:03:51;8.90;;;4.70;;
29730;SDS011;16639;51.488;0.152;2023-04-03T14:06:22;10.13;;;3.90;;
29730;SDS011;16639;51.488;0.152;2023-04-03T14:08:50;7.85;;;4.07;;
29730;SDS011;16639;51.488;0.152;2023-04-03T14:11:20;9.95;;;4.45;;
29730;SDS011;16639;51.488;0.152;2023-04-03T14:13:50;7.68;;;4.30;;
29730;SDS011;16639;51.488;0.152;2023-04-03T14:16:19;9.23;;;5.07;;
29730;SDS011;16639;51.488;0.152;2023-04-03T14:18:49;7.75;;;4.90;;
29730;SDS011;16639;51.488;0.152;2023-04-03T14:21:19;12.18;;;4.88;;
29730;SDS011;16639;51.488;0.152;2023-04-03T14:23:48;7.85;;;5.60;;
29730;SDS011;16639;51.488;0.152;2023-04-03T14:26:17;13.45;;;5.43;;
29730;SDS011;16639;51.488;0.152;2023-04-03T14:28:50;11.32;;;5.90;;
29730;SDS011;16639;51.488;0.152;2023-04-03T14:31:20;9.77;;;6.20;;
29730;SDS011;16639;51.488;0.152;2023-04-03T14:33:48;10.23;;;5.20;;
29730;SDS011;16639;51.488;0.152;2023-04-03T14:36:18;7.97;;;5.28;;
29730;SDS011;16639;51.488;0.152;2023-04-03T14:38:49;12.40;;;6.00;;
29730;SDS011;16639;51.488;0.152;2023-04-03T14:41:18;8.40;;;5.25;;
29730;SDS011;16639;51.488;0.152;2023-04-03T14:43:49;6.85;;;4.60;;
29730;SDS011;16639;51.488;0.152;2023-04-03T14:46:18;8.93;;;4.20;;
29730;SDS011;16639;51.488;0.152;2023-04-03T14:48:54;13.13;;;4.18;;
29730;SDS011;16639;51.488;0.152;2023-04-03T14:51:22;6.13;;;3.65;;
29730;SDS011;16639;51.488;0.152;2023-04-03T14:53:50;6.05;;;4.30;;
29730;SDS011;16639;51.488;0.152;2023-04-03T14:56:19;9.10;;;3.85;;
29730;SDS011;16639;51.488;0.152;2023-04-03T14:58:56;6.95;;;4.80;;
29730;SDS011;16639;51.488;0.152;2023-04-03T15:01:27;7.25;;;4.05;;
29730;SDS011;16639;51.488;0.152;2023-04-03T15:03:55;6.22;;;4.15;;
29730;SDS011;16639;51.488;0.152;2023-04-03T15:06:22;6.45;;;4.03;;
29730;SDS011;16639;51.488;0.152;2023-04-03T15:08:52;7.72;;;3.92;;
29730;SDS011;16639;51.488;0.152;2023-04-03T15:11:20;8.63;;;4.47;;
29730;SDS011;16639;51.488;0.152;2023-04-03T15:13:47;8.95;;;4.60;;
29730;SDS011;16639;51.488;0.152;2023-04-03T15:16:16;11.43;;;4.55;;
29730;SDS011;16639;51.488;0.152;2023-04-03T15:18:45;12.07;;;5.40;;
29730;SDS011;16639;51.488;0.152;2023-04-03T15:21:14;10.05;;;4.78;;
29730;SDS011;16639;51.488;0.152;2023-04-03T15:23:42;12.43;;;5.45;;
29730;SDS011;16639;51.488;0.152;2023-04-03T15:26:09;7.82;;;4.20;;
29730;SDS011;16639;51.488;0.152;2023-04-03T15:28:38;10.23;;;4.95;;
29730;SDS011;16639;51.488;0.152;2023-04-03T15:31:07;11.05;;;4.50;;
29730;SDS011;16639;51.488;0.152;2023-04-03T15:33:36;8.35;;;4.15;;
29730;SDS011;16639;51.488;0.152;2023-04-03T15:36:04;17.73;;;4.72;;
29730;SDS011;16639;51.488;0.152;2023-04-03T15:38:42;8.30;;;4.00;;
29730;SDS011;16639;51.488;0.152;2023-04-03T15:41:10;8.82;;;3.95;;
29730;SDS011;16639;51.488;0.152;2023-04-03T15:43:37;9.95;;;4.47;;
29730;SDS011;16639;51.488;0.152;2023-04-03T15:46:04;9.65;;;4.60;;
29730;SDS011;16639;51.488;0.152;2023-04-03T15:48:32;12.18;;;5.03;;
29730;SDS011;16639;51.488;0.152;2023-04-03T15:51:00;8.90;;;4.40;;
29730;SDS011;16639;51.488;0.152;2023-04-03T15:53:44;8.70;;;3.70;;
29730;SDS011;16639;51.488;0.152;2023-04-03T15:56:12;14.73;;;4.30;;
29730;SDS011;16639;51.488;0.152;2023-04-03T15:58:39;8.98;;;4.35;;
29730;SDS011;16639;51.488;0.152;2023-04-03T16:01:08;8.25;;;3.67;;
29730;SDS011;16639;51.488;0.152;2023-04-03T16:03:39;7.25;;;3.72;;
29730;SDS011;16639;51.488;0.152;2023-04-03T16:06:13;10.65;;;3.85;;
29730;SDS011;16639;51.488;0.152;2023-04-03T16:08:41;11.10;;;4.22;;
29730;SDS011;16639;51.488;0.152;2023-04-03T16:11:09;8.38;;;3.80;;
29730;SDS011;16639;51.488;0.152;2023-04-03T16:13:37;9.55;;;4.57;;
29730;SDS011;16639;51.488;0.152;2023-04-03T16:16:05;5.95;;;3.67;;
29730;SDS011;16639;51.488;0.152;2023-04-03T16:18:33;14.20;;;4.68;;
29730;SDS011;16639;51.488;0.152;2023-04-03T16:21:02;9.75;;;3.70;;
29730;SDS011;16639;51.488;0.152;2023-04-03T16:23:30;7.95;;;4.57;;
29730;SDS011;16639;51.488;0.152;2023-04-03T16:25:57;9.60;;;4.07;;
29730;SDS011;16639;51.488;0.152;2023-04-03T16:28:24;7.80;;;3.75;;
29730;SDS011;16639;51.488;0.152;2023-04-03T16:30:52;6.63;;;3.30;;